Time;durP1;ratioP1;P1;durP2;ratioP2;P2;SDS_P1;SDS_P2;PMS_P1;PMS_P2;Temp;Humidity;BMP_temperature;BMP_pressure;BME280_temperature;BME280_humidity;BME280_pressure;Samples;Min_cycle;Max_cycle;Signal;HPM_P1;HPM_P2
2021/10/27 00:00:23;;;;;;;4.75;3.90;;;9.90;99.90;;;;;;5051139;28;20555;-81
2021/10/27 00:02:49;;;;;;;3.67;3.25;;;9.90;99.90;;;;;;5051366;28;20028;-81
2021/10/27 00:05:15;;;;;;;6.75;3.83;;;10.00;99.90;;;;;;5051071;28;20040;-81
2021/10/27 00:07:42;;;;;;;3.97;3.63;;;10.00;99.90;;;;;;5051183;28;20032;-81
2021/10/27 00:10:08;;;;;;;4.72;3.65;;;10.00;99.90;;;;;;5050957;28;20025;-81
2021/10/27 00:12:34;;;;;;;4.63;3.63;;;10.00;99.90;;;;;;5051030;28;20083;-81
2021/10/27 00:15:01;;;;;;;3.42;3.13;;;10.00;99.90;;;;;;5049729;28;20048;-80
2021/10/27 00:17:27;;;;;;;6.28;3.60;;;10.00;99.90;;;;;;5049710;28;20487;-81
2021/10/27 00:19:53;;;;;;;3.72;3.40;;;10.00;99.90;;;;;;5049589;28;20052;-81
2021/10/27 00:22:20;;;;;;;5.25;3.55;;;9.90;99.90;;;;;;5049772;28;20490;-81
2021/10/27 00:24:46;;;;;;;3.83;3.45;;;10.00;99.90;;;;;;5049770;28;20051;-80
2021/10/27 00:27:12;;;;;;;4.22;3.40;;;10.00;99.90;;;;;;5050883;28;20029;-80
2021/10/27 00:29:39;;;;;;;8.60;3.80;;;10.00;99.90;;;;;;5050669;28;20024;-82
2021/10/27 00:32:06;;;;;;;5.05;3.50;;;10.00;99.90;;;;;;5054633;28;20499;-82
2021/10/27 00:34:32;;;;;;;4.65;3.22;;;10.00;99.90;;;;;;5054822;28;20025;-81
2021/10/27 00:36:58;;;;;;;6.28;3.05;;;10.10;99.90;;;;;;5054437;28;20025;-81
2021/10/27 00:39:25;;;;;;;5.55;3.33;;;10.00;99.90;;;;;;5054578;28;20162;-81
2021/10/27 00:41:51;;;;;;;9.55;3.33;;;10.10;99.90;;;;;;5053327;28;20029;-81
2021/10/27 00:44:22;;;;;;;4.13;3.28;;;10.10;99.90;;;;;;5053071;28;20598;-81
2021/10/27 00:46:57;;;;;;;4.22;3.35;;;10.10;99.90;;;;;;5054285;28;20108;-81
2021/10/27 00:49:23;;;;;;;3.95;3.05;;;10.10;99.90;;;;;;5052793;28;20025;-81
2021/10/27 00:51:49;;;;;;;5.38;3.10;;;10.10;99.90;;;;;;5033946;28;20017;-81
2021/10/27 00:54:15;;;;;;;3.58;2.90;;;10.00;99.90;;;;;;5054419;28;20032;-80
2021/10/27 00:56:41;;;;;;;3.28;2.95;;;10.00;99.90;;;;;;5054101;28;20025;-80
2021/10/27 00:59:07;;;;;;;5.85;2.97;;;10.10;99.90;;;;;;5054032;28;20540;-82
2021/10/27 01:01:33;;;;;;;7.18;3.38;;;10.00;99.90;;;;;;5054198;28;20020;-81
2021/10/27 01:03:59;;;;;;;5.30;3.13;;;10.00;99.90;;;;;;5036338;28;20454;-82
2021/10/27 01:06:25;;;;;;;3.25;2.92;;;10.00;99.90;;;;;;5036158;28;20048;-82
2021/10/27 01:08:51;;;;;;;4.50;3.10;;;10.00;99.90;;;;;;5053987;28;20433;-81
2021/10/27 01:11:16;;;;;;;5.68;2.20;;;10.00;99.90;;;;;;5053861;28;20039;-82
2021/10/27 01:13:42;;;;;;;4.07;3.47;;;10.00;99.90;;;;;;5054436;28;20025;-82
2021/10/27 01:16:08;;;;;;;4.07;2.38;;;10.00;99.90;;;;;;5055794;28;20074;-81
2021/10/27 01:18:35;;;;;;;2.60;2.40;;;10.00;99.90;;;;;;5053567;28;20072;-81
2021/10/27 01:21:01;;;;;;;3.05;2.33;;;10.00;99.90;;;;;;5053733;28;20060;-82
2021/10/27 01:23:26;;;;;;;5.35;2.60;;;10.00;99.90;;;;;;5053820;28;20052;-81
2021/10/27 01:25:52;;;;;;;2.97;2.65;;;10.00;99.90;;;;;;5053683;28;20035;-81
2021/10/27 01:28:19;;;;;;;2.90;2.22;;;10.00;99.90;;;;;;5035569;28;20075;-81
2021/10/27 01:30:45;;;;;;;3.30;2.83;;;10.10;99.90;;;;;;5053650;28;20078;-81
2021/10/27 01:33:11;;;;;;;4.80;2.15;;;10.10;99.90;;;;;;5035708;28;20017;-83
2021/10/27 01:35:38;;;;;;;3.20;2.33;;;10.10;99.90;;;;;;5053446;28;20021;-81
2021/10/27 01:38:04;;;;;;;3.97;2.30;;;10.10;99.90;;;;;;5053426;28;20021;-81
2021/10/27 01:40:30;;;;;;;2.75;2.30;;;10.00;99.90;;;;;;5052113;28;20021;-82
2021/10/27 01:42:56;;;;;;;3.90;2.47;;;10.10;99.90;;;;;;5052998;28;20024;-82
2021/10/27 01:45:28;;;;;;;3.67;1.92;;;10.10;99.90;;;;;;5053286;28;20071;-81
2021/10/27 01:47:57;;;;;;;2.65;2.08;;;10.20;99.90;;;;;;5053311;28;20525;-82
2021/10/27 01:50:23;;;;;;;5.50;2.30;;;10.10;99.90;;;;;;5053094;28;20021;-82
2021/10/27 01:52:49;;;;;;;2.85;2.05;;;10.10;99.90;;;;;;5051945;28;20390;-81
2021/10/27 01:55:15;;;;;;;2.35;2.15;;;10.20;99.90;;;;;;5051760;28;20399;-81
2021/10/27 01:57:41;;;;;;;2.83;2.22;;;10.20;99.90;;;;;;5053216;28;20021;-81
2021/10/27 02:00:08;;;;;;;2.50;2.10;;;10.20;99.90;;;;;;5052969;28;20433;-82
2021/10/27 02:02:34;;;;;;;2.55;2.00;;;10.10;99.90;;;;;;5051809;28;20031;-81
2021/10/27 02:04:59;;;;;;;3.65;1.88;;;10.10;99.90;;;;;;5052987;28;20033;-81
2021/10/27 02:07:26;;;;;;;2.40;2.20;;;10.10;99.90;;;;;;5052745;28;20360;-81
2021/10/27 02:09:51;;;;;;;2.30;2.00;;;10.20;99.90;;;;;;5052740;28;20488;-81
2021/10/27 02:12:17;;;;;;;2.75;2.55;;;10.20;99.90;;;;;;5051438;28;20060;-81
2021/10/27 02:14:43;;;;;;;3.55;2.20;;;10.10;99.90;;;;;;5052947;28;20050;-82
2021/10/27 02:17:08;;;;;;;2.22;2.00;;;10.10;99.90;;;;;;5052513;28;20064;-82
2021/10/27 02:19:34;;;;;;;2.30;2.10;;;10.10;99.90;;;;;;5052753;28;20037;-81
2021/10/27 02:22:00;;;;;;;3.42;1.90;;;10.10;99.90;;;;;;5052579;28;20040;-81
2021/10/27 02:24:26;;;;;;;2.33;1.85;;;10.10;99.90;;;;;;5052491;28;20036;-81
2021/10/27 02:26:52;;;;;;;3.80;2.15;;;10.10;99.90;;;;;;5052673;28;20047;-82
2021/10/27 02:29:18;;;;;;;3.00;2.28;;;10.20;99.90;;;;;;5052229;28;20029;-82
2021/10/27 02:31:43;;;;;;;4.60;2.15;;;10.10;99.90;;;;;;5052467;28;20017;-82
2021/10/27 02:34:09;;;;;;;6.05;1.90;;;10.10;99.90;;;;;;5051160;28;20104;-82
2021/10/27 02:36:35;;;;;;;6.85;2.15;;;10.00;99.90;;;;;;5052479;28;20021;-81
2021/10/27 02:39:01;;;;;;;2.08;1.80;;;10.10;99.90;;;;;;5052152;28;20032;-81
2021/10/27 02:41:27;;;;;;;2.47;2.08;;;10.10;99.90;;;;;;5050819;28;20560;-81
2021/10/27 02:43:52;;;;;;;2.30;2.17;;;10.00;99.90;;;;;;5052567;28;20108;-81
2021/10/27 02:46:18;;;;;;;3.80;2.08;;;10.00;99.90;;;;;;5052943;28;20086;-81
2021/10/27 02:48:44;;;;;;;4.32;2.08;;;10.00;99.90;;;;;;5052659;28;20524;-82
2021/10/27 02:51:10;;;;;;;2.05;1.67;;;10.00;99.90;;;;;;5034972;28;20422;-81
2021/10/27 02:53:36;;;;;;;2.28;2.08;;;10.00;99.90;;;;;;5052239;28;20027;-81
2021/10/27 02:56:02;;;;;;;3.42;2.30;;;10.00;99.90;;;;;;5053136;28;20021;-82
2021/10/27 02:58:28;;;;;;;4.82;1.88;;;10.00;99.90;;;;;;5052696;28;20471;-81
2021/10/27 03:00:54;;;;;;;2.15;1.85;;;10.00;99.90;;;;;;5052560;28;20033;-82
2021/10/27 03:03:20;;;;;;;1.70;1.60;;;10.00;99.90;;;;;;5052133;28;20021;-81
2021/10/27 03:05:45;;;;;;;1.98;1.52;;;10.00;99.90;;;;;;5034305;28;20364;-81
2021/10/27 03:08:11;;;;;;;2.22;1.98;;;10.00;99.90;;;;;;5051985;28;20036;-82
2021/10/27 03:10:37;;;;;;;4.22;2.28;;;10.00;99.90;;;;;;5034134;28;20106;-82
2021/10/27 03:13:03;;;;;;;3.13;1.83;;;10.00;99.90;;;;;;5054539;28;20542;-81
2021/10/27 03:15:28;;;;;;;2.10;1.73;;;9.90;99.90;;;;;;5051822;28;20027;-81
2021/10/27 03:17:54;;;;;;;3.63;1.75;;;9.90;99.90;;;;;;5051557;28;20442;-82
2021/10/27 03:20:20;;;;;;;4.30;1.92;;;9.90;99.90;;;;;;5034053;28;20483;-81
2021/10/27 03:22:46;;;;;;;5.65;1.90;;;9.90;99.90;;;;;;5051752;28;20029;-81
2021/10/27 03:25:11;;;;;;;1.85;1.65;;;9.90;99.90;;;;;;5051735;28;20028;-81
2021/10/27 03:27:37;;;;;;;2.08;1.88;;;9.90;99.90;;;;;;5051782;28;20060;-81
2021/10/27 03:30:04;;;;;;;3.20;1.50;;;9.90;99.90;;;;;;5051404;28;20020;-82
2021/10/27 03:32:30;;;;;;;3.80;2.10;;;10.00;99.90;;;;;;5051598;28;20443;-82
2021/10/27 03:34:56;;;;;;;3.45;1.45;;;10.00;99.90;;;;;;5051594;28;20048;-82
2021/10/27 03:37:22;;;;;;;4.13;1.98;;;10.00;99.90;;;;;;5051438;28;20100;-82
2021/10/27 03:39:47;;;;;;;1.38;1.27;;;10.00;99.90;;;;;;5051332;28;20113;-83
2021/10/27 03:42:13;;;;;;;2.78;1.42;;;10.00;99.90;;;;;;5051746;28;20478;-81
2021/10/27 03:44:39;;;;;;;1.67;1.58;;;10.00;99.90;;;;;;5051469;28;20024;-82
2021/10/27 03:47:05;;;;;;;1.70;1.40;;;10.00;99.90;;;;;;5051533;28;20394;-82
2021/10/27 03:49:31;;;;;;;1.65;1.48;;;10.00;99.90;;;;;;5051308;28;20025;-81
2021/10/27 03:51:57;;;;;;;1.77;1.33;;;10.00;99.90;;;;;;5051388;28;20020;-81
2021/10/27 03:54:22;;;;;;;1.85;1.20;;;10.10;99.90;;;;;;5051406;28;20013;-82
2021/10/27 03:56:48;;;;;;;3.75;1.77;;;10.10;99.90;;;;;;5051571;28;20075;-82
2021/10/27 03:59:15;;;;;;;2.20;1.58;;;10.10;99.90;;;;;;5051211;28;20123;-81
2021/10/27 04:01:41;;;;;;;1.77;1.60;;;10.10;99.90;;;;;;5050120;28;20028;-82
2021/10/27 04:04:07;;;;;;;3.72;2.55;;;10.10;99.90;;;;;;5051859;28;20021;-82
2021/10/27 04:06:32;;;;;;;2.03;1.35;;;10.20;99.90;;;;;;5055237;28;20060;-82
2021/10/27 04:08:58;;;;;;;3.50;1.33;;;10.10;99.90;;;;;;5053796;28;20029;-82
2021/10/27 04:11:24;;;;;;;1.40;1.27;;;10.10;99.90;;;;;;5055233;28;20106;-82
2021/10/27 04:13:50;;;;;;;3.53;1.48;;;10.10;99.90;;;;;;5055240;28;20079;-82
2021/10/27 04:16:16;;;;;;;1.98;1.50;;;10.20;99.90;;;;;;5055166;28;20057;-81
2021/10/27 04:18:41;;;;;;;2.00;1.70;;;10.10;99.90;;;;;;5053578;28;20594;-82
2021/10/27 04:21:07;;;;;;;2.70;1.50;;;10.10;99.90;;;;;;5055153;28;20029;-81
2021/10/27 04:23:33;;;;;;;3.75;1.50;;;10.10;99.90;;;;;;5053789;28;20374;-81
2021/10/27 04:25:59;;;;;;;2.97;1.63;;;10.10;99.90;;;;;;5053852;28;20555;-82
2021/10/27 04:28:24;;;;;;;1.23;1.13;;;10.10;99.90;;;;;;5054977;28;20033;-82
2021/10/27 04:30:50;;;;;;;1.95;1.30;;;10.10;99.90;;;;;;5053621;28;20135;-82
2021/10/27 04:33:21;;;;;;;3.67;1.40;;;10.10;99.90;;;;;;5054827;28;20024;-82
2021/10/27 04:35:48;;;;;;;2.53;1.40;;;10.10;99.90;;;;;;5054927;28;20021;-83
2021/10/27 04:38:16;;;;;;;2.10;1.70;;;10.10;99.90;;;;;;5054604;28;20052;-82
2021/10/27 04:40:42;;;;;;;2.30;1.38;;;10.00;99.90;;;;;;5054821;28;20025;-82
2021/10/27 04:43:09;;;;;;;5.32;1.70;;;10.00;99.90;;;;;;5053244;28;20041;-82
2021/10/27 04:45:35;;;;;;;3.25;1.58;;;10.00;99.90;;;;;;5054667;28;20051;-83
2021/10/27 04:48:01;;;;;;;2.15;1.75;;;10.00;99.90;;;;;;5054485;28;20372;-82
2021/10/27 04:50:27;;;;;;;1.63;1.52;;;10.00;99.90;;;;;;5053726;28;20036;-82
2021/10/27 04:52:53;;;;;;;2.08;1.70;;;10.10;99.90;;;;;;5052093;28;20021;-83
2021/10/27 04:55:19;;;;;;;3.25;1.52;;;10.10;99.90;;;;;;5056095;28;20029;-82
2021/10/27 04:57:45;;;;;;;1.50;1.40;;;10.10;99.90;;;;;;5056129;28;20052;-81
2021/10/27 05:00:12;;;;;;;1.30;1.25;;;10.00;99.90;;;;;;5035674;28;20491;-82
2021/10/27 05:02:38;;;;;;;1.73;1.58;;;10.00;99.90;;;;;;5053978;28;20124;-82
2021/10/27 05:05:04;;;;;;;4.32;1.85;;;10.00;99.90;;;;;;5054166;28;20637;-83
2021/10/27 05:07:30;;;;;;;2.92;1.42;;;10.00;99.90;;;;;;5036471;28;20025;-83
2021/10/27 05:09:56;;;;;;;4.35;1.73;;;10.00;99.90;;;;;;5056152;28;20364;-82
2021/10/27 05:12:22;;;;;;;1.88;1.30;;;10.00;99.90;;;;;;5037533;28;20035;-83
2021/10/27 05:14:48;;;;;;;2.20;1.38;;;10.00;99.90;;;;;;5035375;28;20017;-82
2021/10/27 05:17:15;;;;;;;1.67;1.27;;;9.90;99.90;;;;;;5051787;28;20082;-82
2021/10/27 05:19:44;;;;;;;2.33;1.85;;;9.90;99.90;;;;;;5035560;28;20025;-82
2021/10/27 05:22:11;;;;;;;4.15;1.35;;;9.90;99.90;;;;;;5035890;28;20498;-82
2021/10/27 05:24:38;;;;;;;2.08;1.77;;;10.00;99.90;;;;;;5053994;28;20505;-82
2021/10/27 05:27:05;;;;;;;1.70;1.45;;;9.90;99.90;;;;;;5053902;28;20492;-83
2021/10/27 05:29:30;;;;;;;1.63;1.52;;;9.90;99.90;;;;;;5052477;28;20029;-81
2021/10/27 05:31:56;;;;;;;2.13;1.60;;;9.90;99.90;;;;;;5051752;28;20021;-82
2021/10/27 05:34:22;;;;;;;1.60;1.50;;;9.90;99.90;;;;;;5051741;28;20083;-83
2021/10/27 05:36:49;;;;;;;4.03;1.88;;;9.90;99.90;;;;;;5051760;28;20021;-83
2021/10/27 05:39:15;;;;;;;4.15;2.00;;;9.90;99.90;;;;;;5052110;28;20052;-83
2021/10/27 05:41:45;;;;;;;1.77;1.35;;;9.90;99.90;;;;;;5052565;28;20108;-82
2021/10/27 05:44:11;;;;;;;1.75;1.65;;;9.90;99.90;;;;;;5035034;28;20024;-82
2021/10/27 05:46:39;;;;;;;1.58;1.48;;;9.90;99.90;;;;;;5053341;28;20025;-83
2021/10/27 05:49:20;;;;;;;1.25;1.25;;;9.90;99.90;;;;;;5053126;28;20021;-82
2021/10/27 05:56:57;;;;;;;1.85;1.63;;;9.90;99.90;;;;;;5053580;28;20403;-82
2021/10/27 05:59:22;;;;;;;2.80;1.55;;;9.90;99.90;;;;;;5053234;28;20029;-82
2021/10/27 06:01:48;;;;;;;1.80;1.70;;;9.90;99.90;;;;;;5053361;28;20063;-82
2021/10/27 06:04:17;;;;;;;3.75;2.10;;;9.90;99.90;;;;;;5035199;28;20036;-83
2021/10/27 06:06:46;;;;;;;2.88;2.42;;;9.90;99.90;;;;;;5053009;28;20067;-82
2021/10/27 06:09:15;;;;;;;2.92;1.65;;;9.90;99.90;;;;;;5052902;28;20021;-82
2021/10/27 06:11:42;;;;;;;2.53;2.20;;;9.90;99.90;;;;;;5053045;28;20021;-82
2021/10/27 06:14:08;;;;;;;2.45;2.10;;;9.90;99.90;;;;;;5035061;28;20391;-82
2021/10/27 06:16:34;;;;;;;2.35;1.85;;;9.90;99.90;;;;;;5052713;28;20022;-82
2021/10/27 06:19:00;;;;;;;4.53;1.85;;;10.00;99.90;;;;;;5034861;28;20060;-83
2021/10/27 06:21:27;;;;;;;3.50;1.77;;;10.00;99.90;;;;;;5052654;28;20536;-82
2021/10/27 06:23:53;;;;;;;1.92;1.83;;;10.00;99.90;;;;;;5052710;28;20437;-82
2021/10/27 06:26:20;;;;;;;1.98;1.88;;;10.00;99.90;;;;;;5052575;28;20032;-82
2021/10/27 06:28:58;;;;;;;4.93;1.83;;;10.00;99.90;;;;;;5051514;28;20045;-82
2021/10/27 06:31:50;;;;;;;3.40;1.90;;;10.00;99.90;;;;;;5052644;28;20414;-82
2021/10/27 06:45:54;;;;;;;1.88;1.77;;;10.10;99.90;;;;;;5051821;28;20116;-82
2021/10/27 06:47:38;;;;;;;3.47;2.22;;;10.20;99.90;;;;;;5051827;28;20280;-82
2021/10/27 06:50:04;;;;;;;4.07;2.10;;;10.30;99.90;;;;;;5052204;28;20111;-82
2021/10/27 06:52:30;;;;;;;1.67;1.50;;;10.20;99.90;;;;;;5052029;28;20079;-82
2021/10/27 06:54:56;;;;;;;1.98;1.70;;;10.30;99.90;;;;;;5052001;28;20018;-82
2021/10/27 06:57:26;;;;;;;4.13;2.05;;;10.30;99.90;;;;;;5048811;28;20025;-82
2021/10/27 06:59:55;;;;;;;1.88;1.65;;;10.40;99.90;;;;;;5052010;28;20104;-82
2021/10/27 07:15:36;;;;;;;4.65;2.08;;;10.70;99.90;;;;;;5037008;28;20053;-82
2021/10/27 07:18:02;;;;;;;3.03;2.00;;;10.80;99.90;;;;;;5033424;28;20040;-82
2021/10/27 07:20:28;;;;;;;1.92;1.70;;;10.80;99.90;;;;;;5033863;28;20021;-82
2021/10/27 07:23:02;;;;;;;1.88;1.63;;;10.80;99.90;;;;;;5051474;28;20025;-83
2021/10/27 07:25:33;;;;;;;3.45;1.75;;;10.90;99.90;;;;;;5032653;28;20379;-82
2021/10/27 07:28:02;;;;;;;3.67;2.38;;;10.90;99.90;;;;;;5050544;28;20116;-83
2021/10/27 07:30:28;;;;;;;3.70;1.90;;;11.00;99.90;;;;;;5033215;28;20024;-82
2021/10/27 07:32:56;;;;;;;3.50;1.95;;;11.00;99.90;;;;;;5051349;28;20075;-83
2021/10/27 07:40:43;;;;;;;4.53;2.10;;;11.30;99.90;;;;;;5050997;28;20275;-81
2021/10/27 07:43:22;;;;;;;4.65;2.10;;;11.30;99.90;;;;;;5051319;28;20116;-81
2021/10/27 07:45:49;;;;;;;3.38;1.80;;;11.40;99.90;;;;;;5051605;28;20021;-82
2021/10/27 07:48:16;;;;;;;4.15;1.83;;;11.50;99.90;;;;;;5051202;28;20051;-82
2021/10/27 07:50:42;;;;;;;2.28;2.05;;;11.50;99.90;;;;;;5033334;28;20040;-82
2021/10/27 07:53:10;;;;;;;2.38;1.63;;;11.60;99.90;;;;;;5051364;28;20502;-82
2021/10/27 07:55:44;;;;;;;4.25;1.80;;;11.60;99.90;;;;;;5051225;28;20025;-81
2021/10/27 07:58:11;;;;;;;3.63;2.10;;;11.70;99.90;;;;;;5033315;28;20025;-82
2021/10/27 08:00:37;;;;;;;7.93;2.78;;;11.70;99.90;;;;;;5051090;28;20017;-82
2021/10/27 08:03:03;;;;;;;3.10;1.90;;;11.70;99.90;;;;;;5051292;28;20037;-82
2021/10/27 08:05:37;;;;;;;2.38;2.03;;;11.80;99.90;;;;;;5051280;28;20020;-82
2021/10/27 08:08:03;;;;;;;1.85;1.75;;;11.80;99.90;;;;;;5034635;28;20487;-81
2021/10/27 08:10:29;;;;;;;2.20;2.00;;;11.90;99.90;;;;;;5051069;28;20083;-82
2021/10/27 08:12:56;;;;;;;3.78;1.83;;;11.80;99.90;;;;;;5049822;28;20025;-82
2021/10/27 08:15:22;;;;;;;4.03;2.17;;;11.80;99.90;;;;;;5051053;28;20109;-82
2021/10/27 08:17:48;;;;;;;2.47;2.00;;;11.90;99.90;;;;;;5051001;28;20161;-82
2021/10/27 08:20:15;;;;;;;3.08;1.98;;;12.00;99.90;;;;;;5049600;28;20025;-82
2021/10/27 08:22:44;;;;;;;2.55;2.03;;;12.00;99.90;;;;;;5051075;28;20029;-81
2021/10/27 08:25:27;;;;;;;2.58;2.10;;;12.10;99.90;;;;;;5051003;28;20091;-82
2021/10/27 08:27:55;;;;;;;2.47;2.28;;;12.10;99.90;;;;;;5051074;28;20151;-82
2021/10/27 08:30:26;;;;;;;2.33;2.15;;;12.20;99.90;;;;;;5051061;28;20029;-82
2021/10/27 08:32:54;;;;;;;3.60;2.70;;;12.20;99.90;;;;;;5051023;28;20472;-81
2021/10/27 08:35:21;;;;;;;4.32;2.38;;;12.30;99.90;;;;;;5049525;28;20021;-82
2021/10/27 08:37:49;;;;;;;3.80;2.33;;;12.30;99.90;;;;;;5050634;28;20032;-81
2021/10/27 08:40:22;;;;;;;2.90;2.70;;;12.30;99.90;;;;;;5049628;28;20491;-82
2021/10/27 08:42:49;;;;;;;7.85;3.22;;;12.30;99.90;;;;;;5050896;28;20103;-81
2021/10/27 08:45:15;;;;;;;5.07;2.80;;;12.30;99.90;;;;;;5050926;28;20048;-82
2021/10/27 08:47:42;;;;;;;3.58;2.97;;;12.40;99.90;;;;;;5047471;28;20132;-82
2021/10/27 08:50:11;;;;;;;7.18;3.78;;;12.40;99.90;;;;;;5050584;28;20174;-82
2021/10/27 08:52:39;;;;;;;5.07;3.28;;;12.50;99.90;;;;;;5035686;28;20032;-82
2021/10/27 08:55:05;;;;;;;5.65;3.30;;;12.50;99.90;;;;;;5054465;28;20032;-82
2021/10/27 08:57:31;;;;;;;5.82;3.30;;;12.50;99.90;;;;;;5036372;28;20040;-82
2021/10/27 09:00:07;;;;;;;7.53;3.78;;;12.60;99.90;;;;;;5054082;28;20096;-82
2021/10/27 09:02:55;;;;;;;9.35;4.90;;;12.70;99.90;;;;;;5036224;28;20031;-81
2021/10/27 09:05:37;;;;;;;7.15;3.63;;;12.70;99.90;;;;;;5054256;28;20021;-82
2021/10/27 09:16:25;;;;;;;5.47;3.80;;;13.20;99.90;;;;;;5073890;28;20021;-79
2021/10/27 10:04:30;;;;;;;11.27;6.13;;;13.70;99.90;;;;;;5047053;28;20609;-82
2021/10/27 10:07:02;;;;;;;16.52;7.05;;;13.90;99.90;;;;;;5046693;28;20021;-81
2021/10/27 10:09:36;;;;;;;13.07;7.55;;;14.00;99.90;;;;;;5048760;28;20041;-81
2021/10/27 10:12:03;;;;;;;15.65;7.65;;;14.10;99.90;;;;;;5048482;28;20403;-82
2021/10/27 10:14:29;;;;;;;12.82;7.88;;;14.00;99.90;;;;;;5047859;28;20020;-80
2021/10/27 10:16:58;;;;;;;15.45;7.70;;;14.10;99.90;;;;;;5047757;28;20077;-80
2021/10/27 10:19:36;;;;;;;15.63;7.53;;;14.10;99.90;;;;;;5048180;28;20391;-79
2021/10/27 10:22:03;;;;;;;12.93;8.05;;;14.20;99.90;;;;;;5030591;28;20458;-81
2021/10/27 10:24:37;;;;;;;15.00;8.68;;;14.20;99.90;;;;;;5048485;28;20036;-82
2021/10/27 10:27:09;;;;;;;17.15;8.20;;;14.20;99.90;;;;;;5048044;28;20561;-82
2021/10/27 10:29:34;;;;;;;;;;;14.20;99.90;;;;;;5031918;28;20374;-84
2021/10/27 10:32:21;;;;;;;15.77;7.65;;;14.20;99.90;;;;;;5030136;28;19905;-82
2021/10/27 10:34:52;;;;;;;14.70;7.90;;;14.20;99.90;;;;;;5048656;28;20072;-81
2021/10/27 10:37:32;;;;;;;15.63;7.57;;;14.30;99.90;;;;;;5047552;28;20017;-80
2021/10/27 10:40:07;;;;;;;16.10;7.38;;;14.30;99.90;;;;;;5028002;28;20009;-80
2021/10/27 10:42:59;;;;;;;15.90;7.88;;;14.30;99.90;;;;;;5044503;28;20025;-80
2021/10/27 11:42:47;;;;;;;8.63;5.57;;;15.10;96.20;;;;;;5026743;28;20033;-80
2021/10/27 11:45:34;;;;;;;11.50;5.32;;;15.20;95.90;;;;;;5026861;28;20018;-80
2021/10/27 11:48:24;;;;;;;10.48;5.13;;;15.20;95.60;;;;;;5026919;28;20021;-80
2021/10/27 11:50:50;;;;;;;15.52;4.60;;;15.30;95.90;;;;;;5027427;28;20021;-80
2021/10/27 11:53:31;;;;;;;8.88;5.22;;;15.30;95.50;;;;;;5026819;28;20395;-80
2021/10/27 11:56:08;;;;;;;5.97;5.05;;;15.30;96.50;;;;;;5009554;28;20283;-80
2021/10/27 11:58:45;;;;;;;7.30;4.30;;;15.40;95.00;;;;;;5026962;28;20026;-80
2021/10/27 12:01:33;;;;;;;11.50;5.07;;;15.40;94.40;;;;;;5026876;28;20044;-80
2021/10/27 12:04:00;;;;;;;11.35;5.45;;;15.40;94.90;;;;;;5027748;28;20084;-80
2021/10/27 12:09:37;;;;;;;8.82;5.10;;;15.40;93.30;;;;;;5041504;28;20095;-81
2021/10/27 12:17:59;;;;;;;7.68;4.90;;;15.50;92.80;;;;;;5046981;28;20045;-82
2021/10/27 12:20:36;;;;;;;5.43;4.13;;;15.50;93.10;;;;;;5047211;28;20021;-81
2021/10/27 12:23:07;;;;;;;11.48;5.63;;;15.50;93.30;;;;;;5047244;28;20479;-83
2021/10/27 12:25:33;;;;;;;7.05;4.82;;;15.40;92.50;;;;;;5048739;28;20036;-81
2021/10/27 12:28:03;;;;;;;7.38;5.47;;;15.40;92.70;;;;;;5050512;28;20036;-82
2021/10/27 12:30:37;;;;;;;8.57;4.95;;;15.50;93.30;;;;;;5032575;28;20108;-83
2021/10/27 12:33:04;;;;;;;7.38;4.40;;;15.50;93.00;;;;;;5037465;28;20221;-80
2021/10/27 12:35:31;;;;;;;7.70;4.95;;;15.50;93.40;;;;;;5050749;28;20314;-81
2021/10/27 12:38:19;;;;;;;11.48;5.25;;;15.50;92.80;;;;;;5049358;28;20025;-82
2021/10/27 12:40:46;;;;;;;10.98;4.82;;;15.50;93.30;;;;;;5049108;28;20070;-82
2021/10/27 12:43:15;;;;;;;6.90;4.93;;;15.50;93.10;;;;;;5049516;28;20384;-82
2021/10/27 12:45:54;;;;;;;5.90;5.03;;;15.50;91.60;;;;;;5032604;28;20025;-81
2021/10/27 12:48:25;;;;;;;6.93;4.75;;;15.50;91.80;;;;;;5048214;28;20017;-81
2021/10/27 12:51:03;;;;;;;14.73;5.10;;;15.50;92.00;;;;;;5049623;28;21077;-81
2021/10/27 12:53:41;;;;;;;7.03;5.35;;;15.60;91.80;;;;;;5015522;28;20017;-81
2021/10/27 12:56:15;;;;;;;7.13;5.15;;;15.50;92.60;;;;;;5034686;28;20480;-74
2021/10/27 12:58:52;;;;;;;8.05;5.88;;;15.50;92.70;;;;;;5034357;28;20387;-74
2021/10/27 13:14:50;;;;;;;6.45;4.65;;;15.50;90.70;;;;;;5034142;28;20030;-74
2021/10/27 13:31:21;;;;;;;7.47;4.80;;;15.40;91.50;;;;;;5034657;28;20495;-74
2021/10/27 13:33:47;;;;;;;10.38;4.55;;;15.50;91.50;;;;;;5034649;28;20387;-74
2021/10/27 13:36:16;;;;;;;12.80;4.75;;;15.50;91.10;;;;;;5016914;28;20018;-74
2021/10/27 13:38:41;;;;;;;5.15;4.65;;;15.50;91.20;;;;;;5044132;28;20043;-74
2021/10/27 13:41:09;;;;;;;5.03;4.53;;;15.50;91.30;;;;;;5054443;28;20483;-75
2021/10/27 14:07:53;;;;;;;8.85;4.78;;;15.40;91.90;;;;;;5053112;28;20048;-77
2021/10/27 14:11:11;;;;;;;10.52;5.00;;;15.30;92.50;;;;;;5051418;28;20025;-75
2021/10/27 14:18:33;;;;;;;5.70;4.80;;;15.30;91.40;;;;;;5052616;28;20049;-75
2021/10/27 15:20:37;;;;;;;11.70;4.97;;;14.80;94.80;;;;;;5054429;28;20103;-77
2021/10/27 15:44:26;;;;;;;13.70;5.85;;;14.00;98.40;;;;;;5051448;28;20052;-77
2021/10/27 15:52:23;;;;;;;8.88;4.43;;;13.80;99.20;;;;;;5051029;28;20033;-77
2021/10/27 15:54:49;;;;;;;6.53;4.97;;;13.80;99.30;;;;;;5050026;28;20025;-77
2021/10/27 15:57:15;;;;;;;7.70;4.68;;;13.70;99.50;;;;;;5049806;28;20025;-77
2021/10/27 15:59:41;;;;;;;8.10;4.68;;;13.70;99.70;;;;;;5029344;28;20064;-74
2021/10/27 16:02:07;;;;;;;4.82;4.18;;;13.70;99.70;;;;;;5035965;28;20124;-74
2021/10/27 16:04:36;;;;;;;6.32;4.22;;;13.70;99.90;;;;;;5054575;28;20538;-77
2021/10/27 16:07:05;;;;;;;7.63;4.53;;;13.60;99.90;;;;;;5037095;28;20505;-77
2021/10/27 16:09:37;;;;;;;10.32;5.53;;;13.50;99.90;;;;;;5037819;28;20020;-76
2021/10/27 16:12:04;;;;;;;8.38;5.25;;;13.50;99.90;;;;;;5052470;28;20020;-77
2021/10/27 16:14:31;;;;;;;6.90;4.82;;;13.50;99.90;;;;;;5067375;28;20032;-77
2021/10/27 16:16:57;;;;;;;10.38;5.75;;;13.40;99.90;;;;;;5064598;28;20025;-77
2021/10/27 16:19:23;;;;;;;7.63;5.07;;;13.40;99.90;;;;;;5027192;28;20116;-75
2021/10/27 16:22:13;;;;;;;14.93;7.03;;;13.30;99.90;;;;;;5027846;28;20440;-77
2021/10/27 16:24:41;;;;;;;8.23;5.45;;;13.30;99.90;;;;;;5050210;28;20510;-76
2021/10/27 16:27:07;;;;;;;6.28;4.75;;;13.20;99.90;;;;;;5052599;28;20028;-77
2021/10/27 16:29:33;;;;;;;11.43;4.72;;;13.20;99.90;;;;;;5036102;28;21953;-77
2021/10/27 16:31:59;;;;;;;10.40;5.70;;;13.10;99.90;;;;;;5054851;28;20116;-77
2021/10/27 16:34:25;;;;;;;7.30;5.43;;;13.10;99.90;;;;;;5054302;28;20087;-76
2021/10/27 16:36:50;;;;;;;8.70;5.30;;;13.10;99.90;;;;;;5054495;28;20021;-77
2021/10/27 16:39:17;;;;;;;6.10;4.78;;;13.00;99.90;;;;;;5036614;28;20368;-77
2021/10/27 16:41:44;;;;;;;13.02;5.00;;;13.00;99.90;;;;;;5054546;28;20020;-77
2021/10/27 16:44:10;;;;;;;10.60;5.70;;;12.90;99.90;;;;;;5049188;28;20036;-77
2021/10/27 16:46:35;;;;;;;9.48;5.78;;;12.90;99.90;;;;;;5034821;28;20025;-75
2021/10/27 16:49:02;;;;;;;11.48;6.18;;;12.90;99.90;;;;;;5052899;28;20467;-74
2021/10/27 16:51:28;;;;;;;14.50;6.13;;;12.80;99.90;;;;;;5034868;28;20021;-74
2021/10/27 16:53:54;;;;;;;13.25;6.80;;;12.80;99.90;;;;;;5059279;28;20025;-75
2021/10/27 16:56:20;;;;;;;11.45;6.72;;;12.80;99.90;;;;;;5055495;28;20485;-76
2021/10/27 16:58:45;;;;;;;13.35;6.65;;;12.80;99.90;;;;;;5055605;28;20490;-76
2021/10/27 17:01:11;;;;;;;12.25;7.32;;;12.70;99.90;;;;;;5036468;28;20025;-77
2021/10/27 17:03:37;;;;;;;14.88;6.85;;;12.70;99.90;;;;;;5054447;28;20025;-76
2021/10/27 17:06:05;;;;;;;8.98;6.38;;;12.70;99.90;;;;;;5038663;28;20124;-77
2021/10/27 17:08:31;;;;;;;11.45;7.18;;;12.70;99.90;;;;;;5057280;28;20036;-77
2021/10/27 17:10:57;;;;;;;10.65;7.25;;;12.60;99.90;;;;;;5073101;28;20032;-77
2021/10/27 17:13:23;;;;;;;10.75;7.53;;;12.60;99.90;;;;;;5055260;28;20028;-77
2021/10/27 17:15:50;;;;;;;12.10;7.60;;;12.60;99.90;;;;;;5053474;28;20024;-76
2021/10/27 17:18:16;;;;;;;12.35;8.18;;;12.60;99.90;;;;;;5053886;28;20080;-76
2021/10/27 17:20:44;;;;;;;13.77;8.32;;;12.60;99.90;;;;;;5061840;28;20059;-76
2021/10/27 17:23:17;;;;;;;10.80;7.65;;;12.50;99.90;;;;;;5046219;28;20521;-77
2021/10/27 17:25:43;;;;;;;8.27;6.85;;;12.50;99.90;;;;;;5059909;28;20029;-76
2021/10/27 17:28:09;;;;;;;10.38;8.00;;;12.40;99.90;;;;;;5035739;28;20029;-74
2021/10/27 17:30:36;;;;;;;12.45;7.25;;;12.40;99.90;;;;;;5035574;28;20044;-74
2021/10/27 17:33:05;;;;;;;9.90;7.55;;;12.40;99.90;;;;;;5053942;28;20368;-74
2021/10/27 17:35:32;;;;;;;14.45;7.05;;;12.40;99.90;;;;;;5053790;28;20025;-74
2021/10/27 17:37:57;;;;;;;13.27;7.47;;;12.40;99.90;;;;;;5036343;28;20025;-73
2021/10/27 17:40:58;;;;;;;12.13;6.93;;;12.40;99.90;;;;;;5053863;28;20403;-75
2021/10/27 17:43:17;;;;;;;11.90;7.65;;;12.30;99.90;;;;;;5051368;28;20048;-76
2021/10/27 17:45:44;;;;;;;12.43;8.00;;;12.30;99.90;;;;;;5053509;28;20017;-76
2021/10/27 17:48:22;;;;;;;16.30;7.55;;;12.30;99.90;;;;;;5053471;28;20029;-75